Time;durP1;ratioP1;P1;durP2;ratioP2;P2;SDS_P1;SDS_P2;PMS_P1;PMS_P2;Temp;Humidity;BMP_temperature;BMP_pressure;BME280_temperature;BME280_humidity;BME280_pressure;Samples;Min_cycle;Max_cycle;Signal;HPM_P1;HPM_P2
2023/06/28 00:01:09;;;;;;;3.50;3.20;;;;;;;14.81;69.79;101681.28;5046495;28;20033;-92
2023/06/28 00:03:34;;;;;;;5.57;2.95;;;;;;;14.80;69.83;101676.88;5046194;28;20030;-92
2023/06/28 00:06:00;;;;;;;5.35;3.42;;;;;;;14.85;69.73;101668.97;5041824;28;20036;-91
2023/06/28 00:08:28;;;;;;;5.38;3.00;;;;;;;14.88;69.38;101679.41;5033800;28;20025;-92
2023/06/28 00:10:53;;;;;;;5.32;3.30;;;;;;;14.81;69.61;101679.38;5021152;28;20042;-83
2023/06/28 00:13:19;;;;;;;8.82;3.20;;;;;;;14.77;69.86;101677.28;5027626;28;20021;-79
2023/06/28 00:15:44;;;;;;;6.50;3.22;;;;;;;14.74;69.88;101677.69;5022899;28;20415;-84
2023/06/28 00:18:13;;;;;;;6.05;2.97;;;;;;;14.70;70.03;101671.88;5020320;28;20036;-85
2023/06/28 00:20:40;;;;;;;6.32;3.70;;;;;;;14.66;70.12;101684.09;5027484;28;20042;-85
2023/06/28 00:23:06;;;;;;;7.07;3.15;;;;;;;14.61;70.42;101679.31;5028958;28;20060;-85
2023/06/28 00:25:32;;;;;;;7.15;3.30;;;;;;;14.64;70.34;101678.06;5028219;28;20492;-85
2023/06/28 00:27:57;;;;;;;4.85;3.42;;;;;;;14.64;70.40;101681.63;5030834;28;20248;-85
2023/06/28 00:30:25;;;;;;;9.50;3.08;;;;;;;14.60;70.67;101683.06;5028153;28;20022;-85
2023/06/28 00:32:52;;;;;;;6.22;3.17;;;;;;;14.55;70.68;101688.25;5026607;28;20465;-84
2023/06/28 00:35:17;;;;;;;6.80;3.17;;;;;;;14.51;71.00;101690.53;5025771;28;20035;-84
2023/06/28 00:37:43;;;;;;;5.90;3.10;;;;;;;14.54;70.92;101690.13;5027436;28;20033;-84
2023/06/28 00:40:08;;;;;;;5.13;3.30;;;;;;;14.54;71.03;101679.28;5026503;28;20025;-84
2023/06/28 00:42:34;;;;;;;5.82;3.20;;;;;;;14.49;71.03;101687.19;5027717;28;20030;-85
2023/06/28 00:44:59;;;;;;;4.97;3.40;;;;;;;14.42;71.58;101680.06;5024531;28;20022;-85
2023/06/28 00:47:26;;;;;;;8.20;3.33;;;;;;;14.37;71.70;101686.91;5025325;28;20041;-84
2023/06/28 00:49:53;;;;;;;6.93;3.45;;;;;;;14.33;72.00;101688.34;5011159;28;20022;-84
2023/06/28 00:52:18;;;;;;;6.45;3.40;;;;;;;14.32;72.10;101683.16;4994152;28;20033;-84
2023/06/28 00:54:43;;;;;;;5.45;3.35;;;;;;;14.28;72.00;101684.59;4985750;28;20533;-84
2023/06/28 00:57:09;;;;;;;6.10;3.70;;;;;;;14.25;72.17;101692.06;4986749;28;20460;-85
2023/06/28 00:59:34;;;;;;;5.20;3.75;;;;;;;14.22;72.61;101681.63;5028792;28;20028;-85
2023/06/28 01:02:00;;;;;;;6.03;3.28;;;;;;;14.19;72.80;101678.50;5007291;28;20029;-85
2023/06/28 01:04:25;;;;;;;4.35;3.33;;;;;;;14.18;72.79;101682.25;5009516;28;20059;-85
2023/06/28 01:06:54;;;;;;;7.15;3.38;;;;;;;14.17;72.90;101685.97;5028696;28;20084;-85
2023/06/28 01:09:20;;;;;;;4.28;3.42;;;;;;;14.15;73.19;101678.06;5026331;28;20034;-84
2023/06/28 01:11:46;;;;;;;6.18;3.33;;;;;;;14.08;73.34;101683.47;5027178;28;20036;-85
2023/06/28 01:14:12;;;;;;;6.70;3.70;;;;;;;14.01;73.94;101682.56;4992464;28;20029;-84
2023/06/28 01:16:37;;;;;;;4.38;3.15;;;;;;;13.96;73.96;101687.75;5025148;28;20389;-84
2023/06/28 01:19:05;;;;;;;6.95;3.60;;;;;;;13.88;74.24;101680.63;5009211;28;20029;-84
2023/06/28 01:21:33;;;;;;;5.40;3.75;;;;;;;13.92;74.06;101684.59;5012469;28;20033;-84
2023/06/28 01:24:00;;;;;;;6.10;3.70;;;;;;;13.94;74.47;101689.84;4993201;28;20026;-83
2023/06/28 01:26:25;;;;;;;8.25;3.95;;;;;;;13.87;74.67;101689.75;5012334;28;20503;-84
2023/06/28 01:28:51;;;;;;;6.43;3.55;;;;;;;13.83;74.93;101695.78;5000316;28;20025;-83
2023/06/28 01:31:17;;;;;;;4.88;3.13;;;;;;;13.79;75.01;101693.47;5016328;28;20022;-84
2023/06/28 01:33:42;;;;;;;6.78;4.03;;;;;;;13.77;75.06;101695.53;5026587;28;20121;-84
2023/06/28 01:36:11;;;;;;;7.22;3.78;;;;;;;13.78;75.23;101697.19;5029040;28;20524;-84
2023/06/28 01:38:37;;;;;;;7.32;3.67;;;;;;;13.77;75.50;101700.94;5023899;28;20102;-84
2023/06/28 01:41:02;;;;;;;4.47;3.40;;;;;;;13.78;75.05;101694.50;5012408;28;20539;-85
2023/06/28 01:43:27;;;;;;;6.60;4.10;;;;;;;13.79;74.90;101703.47;5013297;28;20035;-85
2023/06/28 01:45:53;;;;;;;4.82;3.72;;;;;;;13.75;75.69;101703.03;5026015;28;20041;-85
2023/06/28 01:48:18;;;;;;;5.60;3.63;;;;;;;13.77;75.50;101706.34;5028517;28;20026;-84
2023/06/28 01:50:44;;;;;;;6.20;3.85;;;;;;;13.77;75.57;101700.13;5029420;28;20075;-83
2023/06/28 01:53:10;;;;;;;5.32;3.40;;;;;;;13.78;75.35;101704.50;5012985;28;20030;-84
2023/06/28 01:55:35;;;;;;;6.68;3.53;;;;;;;13.73;75.26;101699.69;5027978;28;20034;-84
2023/06/28 01:58:01;;;;;;;6.43;3.95;;;;;;;13.75;75.25;101705.75;5027245;28;20510;-84
2023/06/28 02:00:26;;;;;;;10.40;4.22;;;;;;;13.79;75.47;101698.88;5029587;28;20035;-84
2023/06/28 02:02:52;;;;;;;6.47;4.03;;;;;;;13.82;75.47;101702.22;5026023;28;20093;-85
2023/06/28 02:05:18;;;;;;;5.70;3.78;;;;;;;13.81;75.22;101704.13;5029135;28;20867;-84
2023/06/28 02:07:44;;;;;;;6.57;4.10;;;;;;;13.81;75.18;101701.41;5028682;28;20025;-85
2023/06/28 02:10:09;;;;;;;7.35;4.03;;;;;;;13.78;75.35;101702.63;5027397;28;20053;-85
2023/06/28 02:12:35;;;;;;;4.88;3.80;;;;;;;13.79;75.62;101704.28;5030987;28;20038;-85
2023/06/28 02:15:03;;;;;;;5.97;4.03;;;;;;;13.83;74.98;101693.06;5019871;28;20158;-85
2023/06/28 02:17:30;;;;;;;6.85;3.50;;;;;;;13.91;74.79;101693.75;5025646;28;20029;-85
2023/06/28 02:19:56;;;;;;;7.18;4.13;;;;;;;13.89;74.80;101697.72;5032586;28;20030;-84
2023/06/28 02:22:21;;;;;;;7.45;3.88;;;;;;;13.80;74.77;101692.44;5030807;28;20028;-84
2023/06/28 02:24:47;;;;;;;7.35;3.85;;;;;;;13.80;75.02;101689.72;5023250;28;20732;-84
2023/06/28 02:27:12;;;;;;;9.07;4.00;;;;;;;13.78;75.40;101686.38;5029773;28;20053;-84
2023/06/28 02:29:37;;;;;;;6.72;3.83;;;;;;;13.80;75.72;101688.91;5031495;28;20043;-84
2023/06/28 02:32:03;;;;;;;5.80;3.88;;;;;;;13.72;76.05;101692.59;5027897;28;20373;-84
2023/06/28 02:34:29;;;;;;;6.88;4.60;;;;;;;13.67;76.87;101684.22;5029133;28;20045;-85
2023/06/28 02:36:54;;;;;;;5.78;3.72;;;;;;;13.71;76.33;101685.50;5029492;28;20346;-85
2023/06/28 02:39:20;;;;;;;6.22;4.13;;;;;;;13.71;76.41;101684.66;5020650;28;20170;-85
2023/06/28 02:41:45;;;;;;;8.95;4.22;;;;;;;13.70;76.59;101677.56;5030483;28;20033;-85
2023/06/28 02:44:10;;;;;;;6.55;3.92;;;;;;;13.67;76.76;101678.81;5030376;28;20021;-84
2023/06/28 02:46:36;;;;;;;5.65;4.00;;;;;;;13.69;76.65;101670.50;5026512;28;20113;-85
2023/06/28 02:49:01;;;;;;;5.63;4.03;;;;;;;13.69;76.61;101678.59;5028055;28;20025;-84
2023/06/28 02:51:29;;;;;;;7.68;4.15;;;;;;;13.67;76.67;101678.81;5021242;28;20026;-83
2023/06/28 02:53:55;;;;;;;6.07;4.00;;;;;;;13.68;76.63;101675.09;5021430;28;20026;-83
2023/06/28 02:56:23;;;;;;;5.80;4.40;;;;;;;13.66;76.14;101682.56;5028766;28;20086;-84
2023/06/28 02:58:48;;;;;;;5.75;4.00;;;;;;;13.67;76.31;101678.81;5027847;28;20044;-84
2023/06/28 03:01:14;;;;;;;7.25;3.90;;;;;;;13.63;76.73;101677.53;5027974;28;20033;-84
2023/06/28 03:03:40;;;;;;;6.45;3.80;;;;;;;13.62;76.66;101675.84;5028993;28;20026;-84
2023/06/28 03:06:05;;;;;;;6.82;3.88;;;;;;;13.62;76.99;101670.44;5029807;28;20037;-84
2023/06/28 03:08:31;;;;;;;5.65;3.88;;;;;;;13.67;76.84;101680.69;5029538;28;20018;-84
2023/06/28 03:10:56;;;;;;;4.65;3.90;;;;;;;13.75;76.59;101669.72;5029543;28;20022;-84
2023/06/28 03:13:21;;;;;;;6.75;3.95;;;;;;;13.92;75.54;101665.66;5029314;28;20419;-84
2023/06/28 03:15:47;;;;;;;5.10;3.55;;;;;;;13.97;75.34;101667.75;5028345;28;20029;-84
2023/06/28 03:18:12;;;;;;;6.80;3.78;;;;;;;13.93;77.03;101672.75;5029720;28;20109;-84
2023/06/28 03:20:38;;;;;;;8.32;4.00;;;;;;;13.88;77.40;101671.66;5029399;28;20040;-84
2023/06/28 03:23:06;;;;;;;5.53;3.50;;;;;;;13.87;77.50;101664.59;5028785;28;20512;-84
2023/06/28 03:25:31;;;;;;;5.18;3.60;;;;;;;13.92;77.23;101671.06;5022191;28;20027;-84
2023/06/28 03:27:57;;;;;;;4.47;3.42;;;;;;;14.01;76.26;101674.44;5029862;28;20032;-84
2023/06/28 03:30:22;;;;;;;7.57;3.88;;;;;;;14.13;75.98;101673.88;5027159;28;20489;-84
2023/06/28 03:32:48;;;;;;;4.68;3.53;;;;;;;14.08;76.33;101674.47;5029268;28;20049;-84
2023/06/28 03:35:13;;;;;;;6.38;3.38;;;;;;;14.17;76.27;101676.00;5029322;28;20097;-82
2023/06/28 03:37:39;;;;;;;5.55;3.67;;;;;;;14.25;75.12;101675.81;5030761;28;20033;-88
2023/06/28 03:40:05;;;;;;;4.47;3.22;;;;;;;14.21;75.32;101666.41;5027600;28;20075;-89
2023/06/28 03:42:30;;;;;;;4.40;3.40;;;;;;;14.27;75.23;101667.50;5034093;28;20029;-89
2023/06/28 03:44:56;;;;;;;4.78;3.95;;;;;;;14.28;75.87;101669.19;5030557;28;20029;-90
2023/06/28 03:47:21;;;;;;;7.55;3.97;;;;;;;14.16;77.32;101663.50;5029136;28;20042;-90
2023/06/28 03:49:47;;;;;;;8.20;4.10;;;;;;;14.09;77.86;101665.31;5030792;28;20388;-89
2023/06/28 03:52:15;;;;;;;5.90;3.75;;;;;;;14.12;78.26;101667.63;5030537;28;20025;-88
2023/06/28 03:54:40;;;;;;;4.57;3.15;;;;;;;14.24;77.00;101652.47;5036176;23;20038;-89
2023/06/28 03:57:06;;;;;;;4.60;3.30;;;;;;;14.32;77.07;101659.59;5030641;28;20393;-89
2023/06/28 03:59:31;;;;;;;5.70;3.45;;;;;;;14.37;76.57;101659.00;5029471;28;20113;-89
2023/06/28 04:01:57;;;;;;;5.50;3.40;;;;;;;14.50;75.44;101661.75;5029532;28;20041;-88
2023/06/28 04:04:22;;;;;;;6.22;3.58;;;;;;;14.61;75.27;101663.03;5025106;28;20021;-89
2023/06/28 04:06:50;;;;;;;4.97;3.72;;;;;;;14.67;75.25;101656.78;5022556;28;20030;-91
2023/06/28 04:09:16;;;;;;;6.18;3.45;;;;;;;14.73;74.96;101662.47;5028462;28;20174;-90
2023/06/28 04:11:41;;;;;;;4.68;3.40;;;;;;;14.70;75.11;101659.13;5016971;28;21427;-90
2023/06/28 04:14:07;;;;;;;5.90;3.72;;;;;;;14.67;76.37;101655.97;5032083;28;20158;-89
2023/06/28 04:16:32;;;;;;;6.80;3.90;;;;;;;14.70;76.02;101661.84;5029419;28;20116;-89
2023/06/28 04:18:59;;;;;;;4.80;3.97;;;;;;;14.61;76.52;101662.19;5031301;28;20021;-91
2023/06/28 04:21:24;;;;;;;6.80;3.55;;;;;;;14.58;77.24;101663.44;5021210;28;20075;-90
2023/06/28 04:23:50;;;;;;;7.20;3.70;;;;;;;14.68;77.11;101663.09;5030505;28;20026;-90
2023/06/28 04:26:15;;;;;;;6.35;3.85;;;;;;;14.78;77.32;101654.56;5038078;28;20039;-90
2023/06/28 04:28:41;;;;;;;6.03;3.83;;;;;;;14.88;76.78;101660.41;5046351;28;20026;-90
2023/06/28 04:31:06;;;;;;;7.53;4.20;;;;;;;14.89;76.87;101659.38;5049246;28;20094;-90
2023/06/28 04:33:35;;;;;;;5.65;4.28;;;;;;;14.76;78.05;101662.06;5033892;28;20120;-90
2023/06/28 04:36:01;;;;;;;7.10;4.20;;;;;;;14.78;77.46;101670.84;5036683;28;20033;-90
2023/06/28 04:38:27;;;;;;;8.63;4.53;;;;;;;14.60;78.71;101676.78;5035275;28;20013;-90
2023/06/28 04:40:52;;;;;;;6.60;4.35;;;;;;;14.68;78.15;101673.94;5029421;28;20121;-90
2023/06/28 04:43:20;;;;;;;5.30;4.38;;;;;;;14.64;78.47;101670.78;5015854;28;20376;-90
2023/06/28 04:45:46;;;;;;;8.07;4.53;;;;;;;14.65;78.45;101668.88;5036605;28;20032;-88
2023/06/28 04:48:11;;;;;;;7.20;4.25;;;;;;;14.81;76.49;101668.53;5032260;28;20022;-90
2023/06/28 04:50:37;;;;;;;6.13;3.90;;;;;;;14.90;75.97;101661.06;5032550;28;20414;-88
2023/06/28 04:53:06;;;;;;;7.80;4.50;;;;;;;14.91;75.67;101665.44;5022871;28;20041;-89
2023/06/28 04:55:35;;;;;;;10.13;4.45;;;;;;;14.87;75.91;101666.06;5029146;28;20088;-88
2023/06/28 04:58:04;;;;;;;5.55;3.72;;;;;;;14.75;76.99;101663.94;5030033;28;20234;-88
2023/06/28 05:00:30;;;;;;;5.82;3.72;;;;;;;14.79;75.30;101662.50;5030507;28;20049;-88
2023/06/28 05:03:00;;;;;;;5.05;3.60;;;;;;;14.77;76.20;101661.84;5030834;28;20028;-88
2023/06/28 05:05:25;;;;;;;5.78;4.05;;;;;;;14.59;76.74;101675.09;5031667;28;20038;-88
2023/06/28 05:07:52;;;;;;;4.68;3.67;;;;;;;14.55;76.90;101667.41;5031002;28;20032;-88
2023/06/28 05:10:17;;;;;;;4.80;3.95;;;;;;;14.51;77.71;101676.13;5031305;28;20389;-88
2023/06/28 05:12:43;;;;;;;4.63;3.50;;;;;;;14.67;77.68;101675.75;5028284;28;20030;-88
2023/06/28 05:15:09;;;;;;;7.15;4.03;;;;;;;14.59;77.73;101686.81;5043266;28;20026;-88
2023/06/28 05:17:34;;;;;;;5.82;4.47;;;;;;;14.61;78.18;101673.88;5011893;28;20021;-88
2023/06/28 05:20:03;;;;;;;5.70;3.85;;;;;;;14.89;77.22;101663.97;5033782;28;20029;-88
2023/06/28 05:22:28;;;;;;;4.82;3.67;;;;;;;14.92;77.40;101668.97;5031661;28;20189;-88
2023/06/28 05:24:54;;;;;;;5.07;3.97;;;;;;;15.02;76.93;101664.00;5029971;28;20418;-87
2023/06/28 05:27:20;;;;;;;5.88;3.70;;;;;;;15.25;75.45;101660.88;5031378;28;20030;-88
2023/06/28 05:29:45;;;;;;;4.47;3.22;;;;;;;15.41;75.41;101656.06;5031779;28;20030;-88
2023/06/28 05:32:13;;;;;;;5.68;3.38;;;;;;;15.48;75.27;101651.47;5031851;28;20017;-87
2023/06/28 05:34:39;;;;;;;6.30;3.80;;;;;;;15.54;74.87;101656.06;5031297;28;20388;-87
2023/06/28 05:37:04;;;;;;;7.55;3.42;;;;;;;15.55;75.40;101656.91;5040380;28;20025;-87
2023/06/28 05:39:30;;;;;;;7.60;3.60;;;;;;;15.30;75.37;101650.25;5038963;28;20044;-87
2023/06/28 05:41:55;;;;;;;5.07;3.58;;;;;;;15.39;75.44;101661.72;5037689;28;20044;-87
2023/06/28 05:44:20;;;;;;;7.03;3.78;;;;;;;15.36;76.03;101658.56;5025965;28;20026;-86
2023/06/28 05:46:46;;;;;;;7.10;3.80;;;;;;;15.18;76.58;101662.75;5034803;28;20028;-87
2023/06/28 05:49:12;;;;;;;6.38;3.80;;;;;;;15.24;77.77;101661.09;5036938;28;20022;-87
2023/06/28 05:51:37;;;;;;;4.70;3.40;;;;;;;15.57;75.20;101655.63;5038312;28;20041;-87
2023/06/28 05:54:02;;;;;;;8.63;3.97;;;;;;;15.81;73.96;101649.75;5033549;28;20066;-88
2023/06/28 05:56:29;;;;;;;5.97;3.20;;;;;;;15.88;73.58;101654.16;5024690;28;20469;-83
2023/06/28 05:58:56;;;;;;;5.45;3.22;;;;;;;15.89;74.76;101653.09;5016510;28;20027;-82
2023/06/28 06:01:22;;;;;;;7.93;3.72;;;;;;;15.76;75.26;101655.81;5019332;28;20636;-83
2023/06/28 06:03:48;;;;;;;7.35;3.50;;;;;;;15.99;73.59;101652.66;5050577;27;20105;-83
2023/06/28 06:06:13;;;;;;;4.75;2.95;;;;;;;16.05;71.55;101653.69;5035155;28;20029;-93
2023/06/28 06:08:38;;;;;;;8.32;2.85;;;;;;;16.00;71.98;101658.94;5050928;28;20036;-83
2023/06/28 06:11:04;;;;;;;5.43;3.10;;;;;;;15.82;72.37;101657.69;5033092;28;20032;-84
2023/06/28 06:13:30;;;;;;;5.88;3.33;;;;;;;15.79;74.41;101657.28;5029735;28;20038;-82
2023/06/28 06:15:59;;;;;;;5.53;3.22;;;;;;;15.58;73.49;101654.59;5027994;28;20017;-79
2023/06/28 06:18:24;;;;;;;6.03;3.35;;;;;;;15.43;74.36;101653.97;5023980;28;20030;-82
2023/06/28 06:20:50;;;;;;;5.30;2.90;;;;;;;15.54;74.85;101650.63;5027362;28;20541;-81
2023/06/28 06:23:17;;;;;;;6.22;3.17;;;;;;;15.55;74.67;101651.47;5026920;28;20021;-83
2023/06/28 06:25:42;;;;;;;4.43;2.95;;;;;;;15.58;74.46;101649.16;5027356;28;20022;-82
2023/06/28 06:28:08;;;;;;;6.85;3.33;;;;;;;15.59;74.86;101650.84;5021775;28;20393;-83
2023/06/28 06:30:33;;;;;;;5.45;3.33;;;;;;;15.56;76.18;101642.28;5054289;27;20152;-84
2023/06/28 06:32:59;;;;;;;4.97;3.17;;;;;;;15.49;75.79;101641.44;5030663;28;20025;-82
2023/06/28 06:35:25;;;;;;;7.32;3.95;;;;;;;15.55;76.38;101643.34;5027166;28;20026;-82
2023/06/28 06:37:50;;;;;;;5.32;3.03;;;;;;;15.64;75.31;101654.81;5015773;28;20038;-82
2023/06/28 06:40:16;;;;;;;5.30;2.90;;;;;;;15.42;76.41;101649.59;5016394;28;20022;-79
2023/06/28 06:42:41;;;;;;;4.82;3.30;;;;;;;15.46;76.51;101656.28;5027626;28;20047;-81
2023/06/28 06:45:07;;;;;;;4.32;3.00;;;;;;;15.48;77.02;101658.78;5020443;28;20076;-80
2023/06/28 06:47:32;;;;;;;5.68;3.17;;;;;;;15.48;76.43;101656.06;5020991;28;20060;-81
2023/06/28 06:49:58;;;;;;;4.88;3.38;;;;;;;15.43;76.95;101651.28;5028040;28;20028;-82
2023/06/28 06:52:23;;;;;;;5.30;3.42;;;;;;;15.35;76.93;101649.59;5026557;28;20037;-80
2023/06/28 06:54:48;;;;;;;7.78;3.55;;;;;;;15.44;77.07;101655.66;5026592;28;20102;-81
2023/06/28 06:57:15;;;;;;;6.57;3.60;;;;;;;15.45;76.81;101663.56;5028274;28;20032;-82
2023/06/28 06:59:40;;;;;;;4.22;3.33;;;;;;;15.39;76.84;101663.59;5025438;28;20481;-80
2023/06/28 07:02:06;;;;;;;5.57;3.22;;;;;;;15.50;76.41;101660.25;5021369;28;20037;-82
2023/06/28 07:04:31;;;;;;;6.25;3.65;;;;;;;15.63;76.74;101658.56;5015251;28;20380;-83
2023/06/28 07:06:57;;;;;;;8.05;3.67;;;;;;;15.69;76.19;101657.72;5027565;28;20368;-85
2023/06/28 07:09:24;;;;;;;6.50;3.50;;;;;;;15.63;77.48;101658.56;5032863;28;20033;-84
2023/06/28 07:11:49;;;;;;;5.07;3.35;;;;;;;15.60;76.22;101663.38;5021777;28;20421;-83
2023/06/28 07:14:15;;;;;;;7.13;3.33;;;;;;;15.54;77.76;101671.50;5025344;28;20054;-83
2023/06/28 07:16:44;;;;;;;6.10;3.25;;;;;;;15.55;77.17;101667.75;5032304;28;20037;-84
2023/06/28 07:19:10;;;;;;;5.82;3.00;;;;;;;15.42;78.25;101658.59;5018806;28;20036;-82
2023/06/28 07:21:35;;;;;;;6.35;3.60;;;;;;;15.42;78.72;101663.16;5019164;28;20037;-84
2023/06/28 07:24:00;;;;;;;6.82;3.40;;;;;;;15.51;78.61;101672.78;5007878;28;20030;-84
2023/06/28 07:26:26;;;;;;;8.13;3.70;;;;;;;15.64;78.52;101671.09;5008076;28;20014;-84
2023/06/28 07:28:51;;;;;;;6.38;3.67;;;;;;;15.64;79.01;101674.63;5022290;28;20067;-84
2023/06/28 07:31:17;;;;;;;6.03;3.75;;;;;;;15.98;76.04;101677.31;5028086;28;20028;-84
2023/06/28 07:33:42;;;;;;;6.45;3.78;;;;;;;15.97;77.48;101675.66;5010166;28;20017;-84
2023/06/28 07:36:08;;;;;;;7.43;3.97;;;;;;;16.11;78.02;101676.44;5026979;28;20029;-84
2023/06/28 07:38:33;;;;;;;5.60;3.58;;;;;;;16.40;76.43;101679.69;5027159;28;20033;-84
2023/06/28 07:40:59;;;;;;;4.55;3.30;;;;;;;16.59;75.42;101678.75;5027912;28;20282;-84
2023/06/28 07:43:24;;;;;;;4.25;3.10;;;;;;;16.79;73.95;101680.53;5026168;28;20401;-85
2023/06/28 07:45:59;;;;;;;3.65;3.30;;;;;;;16.78;73.60;101687.84;5027873;28;20029;-85
2023/06/28 07:48:27;;;;;;;6.38;3.30;;;;;;;16.86;73.29;101686.75;5027634;28;20444;-85
2023/06/28 07:50:53;;;;;;;6.60;3.40;;;;;;;16.97;72.82;101680.66;5027984;28;20106;-85
2023/06/28 07:53:18;;;;;;;5.97;3.15;;;;;;;17.12;71.84;101685.75;5027455;28;20025;-85
2023/06/28 07:55:44;;;;;;;6.18;3.47;;;;;;;17.35;70.78;101683.53;5027188;28;20072;-84
2023/06/28 07:58:09;;;;;;;7.82;3.70;;;;;;;17.45;71.09;101685.75;5024990;28;20033;-84
2023/06/28 08:00:34;;;;;;;5.38;3.33;;;;;;;17.56;72.41;101683.09;5026458;28;20017;-85
2023/06/28 08:03:01;;;;;;;5.57;3.42;;;;;;;17.85;70.69;101680.75;5027607;28;20370;-85
2023/06/28 08:05:26;;;;;;;6.18;3.60;;;;;;;17.90;70.08;101690.97;5028525;28;20492;-85
2023/06/28 08:07:53;;;;;;;9.02;3.97;;;;;;;17.84;70.98;101689.13;5026867;28;20142;-85
2023/06/28 08:10:18;;;;;;;8.13;4.05;;;;;;;17.50;71.71;101688.63;5027491;28;20100;-85
2023/06/28 08:12:44;;;;;;;5.80;3.78;;;;;;;17.22;73.17;101693.44;5026143;28;20034;-85
2023/06/28 08:15:09;;;;;;;10.48;3.50;;;;;;;17.01;73.06;101685.66;5010751;28;20119;-85
2023/06/28 08:17:35;;;;;;;7.38;3.63;;;;;;;17.13;71.50;101690.16;5008584;28;20014;-85
2023/06/28 08:20:00;;;;;;;6.15;3.60;;;;;;;17.25;69.95;101689.47;5008141;28;20053;-85
2023/06/28 08:22:26;;;;;;;6.97;3.70;;;;;;;17.14;71.08;101688.28;5022512;28;20385;-85
2023/06/28 08:24:51;;;;;;;6.43;3.65;;;;;;;17.04;70.30;101696.94;5029305;28;20029;-85
2023/06/28 08:27:17;;;;;;;6.38;3.50;;;;;;;16.87;70.74;101696.56;5026422;28;20406;-85
2023/06/28 08:29:42;;;;;;;5.72;3.40;;;;;;;16.82;71.75;101693.69;5026588;28;20082;-85
2023/06/28 08:32:09;;;;;;;7.97;3.67;;;;;;;16.72;71.41;101694.16;5026953;28;20025;-85
2023/06/28 08:34:34;;;;;;;7.38;3.45;;;;;;;16.64;72.08;101694.41;5012268;28;20049;-86
2023/06/28 08:37:00;;;;;;;9.25;3.85;;;;;;;16.67;72.42;101694.81;5011254;28;20033;-85
2023/06/28 08:39:25;;;;;;;7.63;3.65;;;;;;;16.66;72.05;101689.59;5009088;28;20030;-85
2023/06/28 08:41:54;;;;;;;7.25;3.55;;;;;;;16.59;71.84;101694.25;5014186;28;20044;-85
2023/06/28 08:44:20;;;;;;;8.02;3.70;;;;;;;16.49;72.81;101694.72;5026666;28;20018;-85
2023/06/28 08:46:45;;;;;;;6.95;3.38;;;;;;;16.40;74.05;101691.41;5026781;28;20030;-84
2023/06/28 08:49:10;;;;;;;6.82;3.45;;;;;;;16.36;72.82;101692.88;5009475;28;20029;-85
2023/06/28 08:51:39;;;;;;;10.02;3.90;;;;;;;16.33;74.30;101693.28;5008807;28;20026;-85
2023/06/28 08:54:04;;;;;;;6.70;3.67;;;;;;;16.14;74.67;101698.59;4993565;28;20109;-86
2023/06/28 08:56:30;;;;;;;7.10;3.28;;;;;;;16.17;74.62;101694.59;4991529;28;20089;-85
2023/06/28 08:58:56;;;;;;;7.93;4.28;;;;;;;16.21;74.45;101691.25;5026154;28;20022;-85
2023/06/28 09:01:24;;;;;;;6.05;3.55;;;;;;;16.23;73.76;101691.03;5026695;28;20030;-85
2023/06/28 09:03:50;;;;;;;9.07;3.83;;;;;;;16.19;74.17;101685.19;5027313;28;20275;-85
2023/06/28 09:06:16;;;;;;;6.50;3.90;;;;;;;16.34;74.28;101686.81;5026417;28;20140;-86
2023/06/28 09:08:42;;;;;;;7.03;4.00;;;;;;;16.41;73.54;101686.78;5008788;28;20263;-85
2023/06/28 09:11:08;;;;;;;9.40;3.97;;;;;;;16.52;73.24;101684.22;5008488;28;20037;-84
2023/06/28 09:13:36;;;;;;;8.38;4.45;;;;;;;16.53;73.22;101693.19;4989506;28;20033;-85
2023/06/28 09:16:01;;;;;;;8.18;3.90;;;;;;;16.61;71.98;101687.53;5075220;28;20025;-85
2023/06/28 09:18:27;;;;;;;8.73;4.40;;;;;;;16.29;74.50;101697.47;5010385;28;20022;-85
2023/06/28 09:21:05;;;;;;;9.02;4.15;;;;;;;16.51;72.41;101690.72;5023708;28;20049;-85
2023/06/28 09:23:32;;;;;;;10.40;4.38;;;;;;;16.63;72.59;101687.31;5035166;28;20082;-85
2023/06/28 09:25:57;;;;;;;8.48;4.30;;;;;;;16.68;72.39;101687.50;5010043;28;20018;-85
2023/06/28 09:28:24;;;;;;;8.02;4.05;;;;;;;16.77;72.05;101696.22;5025288;28;20098;-85
2023/06/28 09:30:56;;;;;;;7.50;3.95;;;;;;;16.78;72.44;101687.84;5026420;28;20025;-85
2023/06/28 09:33:22;;;;;;;7.13;3.85;;;;;;;16.85;72.29;101690.56;5021142;28;20451;-85
2023/06/28 09:35:47;;;;;;;8.73;4.25;;;;;;;16.73;72.52;101695.84;5014258;28;20381;-85
2023/06/28 09:38:13;;;;;;;8.30;4.30;;;;;;;16.64;72.88;101695.25;5025219;28;20025;-86
2023/06/28 09:40:38;;;;;;;10.57;4.40;;;;;;;16.92;71.58;101690.50;5008893;28;20022;-85
2023/06/28 09:43:03;;;;;;;9.52;4.35;;;;;;;16.87;71.92;101695.75;5025747;28;20028;-85
2023/06/28 09:45:30;;;;;;;6.28;3.97;;;;;;;17.09;71.65;101694.41;5028322;28;20025;-85
2023/06/28 09:47:59;;;;;;;10.38;4.60;;;;;;;17.21;72.24;101697.22;5029495;28;20032;-86
2023/06/28 09:50:36;;;;;;;9.57;4.30;;;;;;;17.50;70.23;101694.06;5009928;28;20109;-86
2023/06/28 09:53:02;;;;;;;10.30;4.90;;;;;;;17.37;70.61;101693.13;5012330;28;20033;-86
2023/06/28 09:55:28;;;;;;;12.95;4.82;;;;;;;17.36;71.17;101693.38;5029559;28;20057;-86
2023/06/28 09:57:56;;;;;;;9.27;4.60;;;;;;;17.46;71.40;101699.13;5029260;28;20096;-86
2023/06/28 10:00:23;;;;;;;8.75;4.50;;;;;;;17.53;70.48;101699.06;5029857;28;20119;-86
2023/06/28 10:02:51;;;;;;;9.23;4.70;;;;;;;17.82;69.08;101691.28;4996751;28;20030;-87
2023/06/28 10:05:16;;;;;;;7.10;4.38;;;;;;;17.79;69.27;101695.25;5018761;28;20122;-87
2023/06/28 10:07:41;;;;;;;8.32;4.63;;;;;;;17.85;68.63;101690.78;4977015;28;20026;-86
2023/06/28 10:10:08;;;;;;;11.50;4.82;;;;;;;17.65;69.29;101691.81;5011872;28;20365;-86
2023/06/28 10:12:33;;;;;;;9.95;4.45;;;;;;;17.75;69.68;101691.31;4995349;28;20108;-87
2023/06/28 10:15:02;;;;;;;8.80;4.40;;;;;;;17.81;69.01;101695.06;4988386;28;20040;-87
2023/06/28 10:17:31;;;;;;;11.52;5.60;;;;;;;17.45;71.47;101693.91;4993227;28;20030;-87
2023/06/28 10:19:56;;;;;;;10.00;5.00;;;;;;;17.60;70.44;101686.25;4993044;28;20061;-88
2023/06/28 10:22:22;;;;;;;9.15;4.50;;;;;;;17.69;69.71;101694.94;5004046;28;20026;-88
2023/06/28 10:24:47;;;;;;;9.15;4.90;;;;;;;17.62;70.62;101686.84;5030205;28;20366;-87
2023/06/28 10:27:13;;;;;;;9.32;5.10;;;;;;;17.67;70.06;101692.44;5029963;28;20040;-88
2023/06/28 10:29:38;;;;;;;9.05;5.15;;;;;;;17.61;70.60;101696.06;5038100;28;20037;-87
2023/06/28 10:32:04;;;;;;;11.93;5.47;;;;;;;17.53;71.41;101699.06;5000514;28;20571;-87
2023/06/28 10:34:29;;;;;;;9.50;5.43;;;;;;;17.70;70.22;101689.28;4995256;28;20084;-88
2023/06/28 10:36:58;;;;;;;7.93;5.35;;;;;;;17.68;70.54;101691.38;4994733;28;20025;-88
2023/06/28 10:39:23;;;;;;;11.20;5.82;;;;;;;17.23;72.63;101683.41;5029895;28;20086;-88
2023/06/28 10:41:55;;;;;;;10.30;5.60;;;;;;;17.47;72.56;101694.53;5011643;28;20078;-87
2023/06/28 10:44:21;;;;;;;10.82;5.82;;;;;;;17.46;72.99;101690.13;5004792;28;20043;-88
2023/06/28 10:46:46;;;;;;;9.50;5.40;;;;;;;17.51;72.79;101691.13;5009850;28;20022;-88
2023/06/28 10:49:12;;;;;;;13.05;5.82;;;;;;;17.51;72.70;101690.28;4994326;28;20690;-88
2023/06/28 10:51:37;;;;;;;7.13;5.43;;;;;;;17.85;71.58;101685.34;5028147;28;20437;-88
2023/06/28 10:54:09;;;;;;;13.80;6.63;;;;;;;17.52;73.83;101691.94;5012505;28;20050;-88
2023/06/28 10:56:42;;;;;;;11.43;6.15;;;;;;;17.54;72.86;101687.97;5026609;28;20051;-88
2023/06/28 10:59:11;;;;;;;9.27;6.10;;;;;;;17.90;70.85;101688.25;5028330;28;20781;-88
2023/06/28 11:01:59;;;;;;;10.05;6.15;;;;;;;17.78;71.69;101687.31;5010236;28;20385;-88
2023/06/28 11:04:25;;;;;;;9.75;6.30;;;;;;;18.17;69.56;101685.28;5011969;28;20025;-88
2023/06/28 11:07:02;;;;;;;9.27;6.55;;;;;;;18.31;68.84;101680.47;5014326;28;20026;-87
2023/06/28 11:09:27;;;;;;;14.02;7.00;;;;;;;18.30;68.94;101676.94;5012049;28;20435;-88
2023/06/28 11:12:00;;;;;;;10.95;6.68;;;;;;;18.38;69.04;101680.38;5029025;28;20070;-89
2023/06/28 11:14:30;;;;;;;10.18;6.28;;;;;;;18.45;68.75;101668.31;5030546;28;20130;-88
2023/06/28 11:17:14;;;;;;;12.25;6.32;;;;;;;18.45;68.26;101665.59;5020548;28;20032;-88
2023/06/28 11:19:41;;;;;;;7.75;5.88;;;;;;;18.62;69.34;101662.25;5016922;28;20030;-88